createdAt,value
2017-12-01T00:00:04.994Z,955.26
2017-12-01T00:15:05.047Z,955.37
2017-12-01T00:30:17.406Z,954.97
2017-12-01T00:45:04.632Z,955.45
2017-12-01T01:00:05.743Z,955.71
2017-12-01T01:15:05.402Z,956.54
2017-12-01T01:30:05.512Z,950.28
2017-12-01T01:45:04.789Z,951.1
2017-12-01T02:00:04.892Z,950.92
2017-12-01T02:15:05.379Z,950.2
2017-12-01T02:30:05.044Z,957.08
2017-12-01T02:45:05.514Z,957.11
2017-12-01T03:00:05.926Z,957.16
2017-12-01T03:15:04.871Z,949.94
2017-12-01T03:30:04.539Z,957.16
2017-12-01T03:45:04.829Z,957.43
2017-12-01T04:00:04.704Z,957.27
2017-12-01T04:15:04.634Z,957.43
2017-12-01T04:30:05.375Z,957.45
2017-12-01T04:45:08.380Z,957.64
2017-12-01T05:00:04.746Z,957.99
2017-12-01T05:15:06.195Z,951.39
2017-12-01T05:30:12.269Z,951.16
2017-12-01T05:45:06.392Z,958.34
2017-12-01T06:00:04.715Z,951.58
2017-12-01T06:15:07.857Z,951.82
2017-12-01T06:30:08.057Z,951.58
2017-12-01T06:45:10.547Z,951.95
2017-12-01T07:00:04.412Z,951.98
2017-12-01T07:15:04.864Z,952.14
2017-12-01T07:30:06.016Z,959.41
2017-12-01T07:45:04.902Z,952.32
2017-12-01T08:00:04.367Z,959.43
2017-12-01T08:15:04.833Z,959.09
2017-12-01T08:30:04.495Z,959.25
2017-12-01T08:45:04.871Z,959.19
2017-12-01T09:00:04.357Z,958.5
2017-12-01T09:15:04.293Z,958.34
2017-12-01T09:30:04.629Z,957.72
2017-12-01T09:45:05.001Z,957.24
2017-12-01T10:00:04.927Z,957.21
2017-12-01T10:15:05.272Z,956.04
2017-12-01T10:30:04.955Z,956.57
2017-12-01T10:45:04.273Z,956.01
2017-12-01T11:00:05.661Z,956.81
2017-12-01T11:15:07.663Z,957.51
2017-12-01T11:30:08.428Z,957.21
2017-12-01T11:45:06.344Z,956.79
2017-12-01T12:00:05.264Z,955.66
2017-12-01T12:15:05.223Z,956.62
2017-12-01T12:30:04.389Z,956.3
2017-12-01T12:45:06.347Z,956.87
2017-12-01T13:00:05.320Z,957.64
2017-12-01T13:15:05.759Z,957.91
2017-12-01T13:30:04.315Z,957.45
2017-12-01T13:45:04.686Z,957.16
2017-12-01T14:00:04.561Z,957.8
2017-12-01T14:15:05.058Z,957.96
2017-12-01T14:30:05.200Z,958.18
2017-12-01T14:45:05.198Z,959.17
2017-12-01T15:00:04.692Z,959.6
2017-12-01T15:15:05.664Z,959.78
2017-12-01T15:30:12.498Z,959.81
2017-12-01T15:45:04.808Z,960.42
2017-12-01T16:00:04.713Z,960.48
2017-12-01T16:15:04.942Z,960.42
2017-12-01T16:30:05.060Z,960.8
2017-12-01T16:45:04.942Z,960.69
2017-12-01T17:00:04.360Z,960.88
2017-12-01T17:15:05.870Z,961.04
2017-12-01T17:30:05.080Z,961.23
2017-12-01T17:45:05.347Z,961.39
2017-12-01T18:00:05.397Z,961.84
2017-12-01T18:15:04.875Z,961.82
2017-12-01T18:30:08.795Z,961.98
2017-12-01T18:45:37.316Z,962.22
2017-12-01T19:00:08.437Z,962.14
2017-12-01T19:15:07.461Z,962.51
2017-12-01T19:30:05.613Z,962.54
2017-12-01T19:45:04.778Z,962.51
2017-12-01T20:00:05.026Z,962.59
2017-12-01T20:15:04.437Z,962.89
2017-12-01T20:30:04.966Z,963.07
2017-12-01T20:45:04.640Z,963.13
2017-12-01T21:00:10.021Z,963.1
2017-12-01T21:15:04.785Z,963.02
2017-12-01T21:30:04.961Z,963.05
2017-12-01T21:45:04.696Z,963.13
2017-12-01T22:00:05.813Z,963.64
2017-12-01T22:15:07.845Z,963.5
2017-12-01T22:30:05.702Z,963.82
2017-12-01T22:45:05.480Z,964.12
2017-12-01T23:00:08.772Z,964.28
2017-12-01T23:15:04.954Z,964.33
2017-12-01T23:30:07.825Z,964.09
2017-12-01T23:45:06.498Z,964.17
